sensor_id;sensor_type;location;lat;lon;timestamp;P1;durP1;ratioP1;P2;durP2;ratioP2
52102;SDS011;38101;53.126;6.878;2023-04-08T00:00:22;10.68;;;7.88;;
52102;SDS011;38101;53.126;6.878;2023-04-08T00:02:47;9.82;;;7.90;;
52102;SDS011;38101;53.126;6.878;2023-04-08T00:05:13;10.75;;;8.10;;
52102;SDS011;38101;53.126;6.878;2023-04-08T00:07:40;10.80;;;7.65;;
52102;SDS011;38101;53.126;6.878;2023-04-08T00:10:06;12.15;;;7.75;;
52102;SDS011;38101;53.126;6.878;2023-04-08T00:12:32;11.77;;;8.50;;
52102;SDS011;38101;53.126;6.878;2023-04-08T00:14:58;10.40;;;8.10;;
52102;SDS011;38101;53.126;6.878;2023-04-08T00:17:23;10.75;;;8.63;;
52102;SDS011;38101;53.126;6.878;2023-04-08T00:19:50;9.70;;;7.88;;
52102;SDS011;38101;53.126;6.878;2023-04-08T00:22:16;12.90;;;8.68;;
52102;SDS011;38101;53.126;6.878;2023-04-08T00:24:41;9.88;;;7.95;;
52102;SDS011;38101;53.126;6.878;2023-04-08T00:27:07;12.15;;;8.60;;
52102;SDS011;38101;53.126;6.878;2023-04-08T00:29:33;11.18;;;8.63;;
52102;SDS011;38101;53.126;6.878;2023-04-08T00:31:59;10.40;;;8.77;;
52102;SDS011;38101;53.126;6.878;2023-04-08T00:34:24;10.43;;;8.43;;
52102;SDS011;38101;53.126;6.878;2023-04-08T00:36:51;11.10;;;8.52;;
52102;SDS011;38101;53.126;6.878;2023-04-08T00:39:16;10.00;;;8.20;;
52102;SDS011;38101;53.126;6.878;2023-04-08T00:41:42;11.10;;;8.48;;
52102;SDS011;38101;53.126;6.878;2023-04-08T00:44:08;10.65;;;8.65;;
52102;SDS011;38101;53.126;6.878;2023-04-08T00:46:35;10.80;;;8.27;;
52102;SDS011;38101;53.126;6.878;2023-04-08T00:49:03;12.50;;;9.05;;
52102;SDS011;38101;53.126;6.878;2023-04-08T00:51:30;11.30;;;8.27;;
52102;SDS011;38101;53.126;6.878;2023-04-08T00:53:56;11.40;;;8.48;;
52102;SDS011;38101;53.126;6.878;2023-04-08T00:56:22;10.43;;;8.77;;
52102;SDS011;38101;53.126;6.878;2023-04-08T00:58:49;13.27;;;9.10;;
52102;SDS011;38101;53.126;6.878;2023-04-08T01:01:25;11.48;;;8.85;;
52102;SDS011;38101;53.126;6.878;2023-04-08T01:07:24;11.73;;;8.73;;
52102;SDS011;38101;53.126;6.878;2023-04-08T01:09:58;13.27;;;8.88;;
52102;SDS011;38101;53.126;6.878;2023-04-08T01:12:31;11.48;;;8.70;;
52102;SDS011;38101;53.126;6.878;2023-04-08T01:15:04;11.45;;;9.00;;
52102;SDS011;38101;53.126;6.878;2023-04-08T01:17:32;11.52;;;8.93;;
52102;SDS011;38101;53.126;6.878;2023-04-08T01:20:00;14.68;;;9.32;;
52102;SDS011;38101;53.126;6.878;2023-04-08T01:25:32;13.65;;;10.20;;
52102;SDS011;38101;53.126;6.878;2023-04-08T01:28:00;12.40;;;9.77;;
52102;SDS011;38101;53.126;6.878;2023-04-08T01:30:29;14.18;;;9.80;;
52102;SDS011;38101;53.126;6.878;2023-04-08T01:32:56;12.60;;;9.55;;
52102;SDS011;38101;53.126;6.878;2023-04-08T01:35:24;10.73;;;9.07;;
52102;SDS011;38101;53.126;6.878;2023-04-08T01:37:51;13.07;;;9.52;;
52102;SDS011;38101;53.126;6.878;2023-04-08T01:40:18;13.15;;;10.07;;
52102;SDS011;38101;53.126;6.878;2023-04-08T01:42:44;12.77;;;9.52;;
52102;SDS011;38101;53.126;6.878;2023-04-08T01:45:12;12.02;;;9.85;;
52102;SDS011;38101;53.126;6.878;2023-04-08T01:47:40;13.88;;;10.15;;
52102;SDS011;38101;53.126;6.878;2023-04-08T01:50:09;12.23;;;9.57;;
52102;SDS011;38101;53.126;6.878;2023-04-08T01:52:35;11.48;;;9.48;;
52102;SDS011;38101;53.126;6.878;2023-04-08T01:55:02;11.50;;;9.40;;
52102;SDS011;38101;53.126;6.878;2023-04-08T01:57:30;13.15;;;10.13;;
52102;SDS011;38101;53.126;6.878;2023-04-08T02:00:00;13.15;;;9.68;;
52102;SDS011;38101;53.126;6.878;2023-04-08T02:02:30;12.65;;;9.80;;
52102;SDS011;38101;53.126;6.878;2023-04-08T02:04:57;14.32;;;9.68;;
52102;SDS011;38101;53.126;6.878;2023-04-08T02:07:23;12.30;;;9.23;;
52102;SDS011;38101;53.126;6.878;2023-04-08T02:09:49;11.48;;;9.13;;
52102;SDS011;38101;53.126;6.878;2023-04-08T02:12:15;13.20;;;9.80;;
52102;SDS011;38101;53.126;6.878;2023-04-08T02:14:41;14.13;;;10.23;;
52102;SDS011;38101;53.126;6.878;2023-04-08T02:17:09;13.63;;;9.75;;
52102;SDS011;38101;53.126;6.878;2023-04-08T02:19:47;11.73;;;9.75;;
52102;SDS011;38101;53.126;6.878;2023-04-08T02:22:33;13.68;;;9.75;;
52102;SDS011;38101;53.126;6.878;2023-04-08T02:27:33;12.15;;;9.63;;
52102;SDS011;38101;53.126;6.878;2023-04-08T02:30:01;16.05;;;11.15;;
52102;SDS011;38101;53.126;6.878;2023-04-08T02:32:30;13.05;;;9.80;;
52102;SDS011;38101;53.126;6.878;2023-04-08T02:34:58;13.73;;;10.50;;
52102;SDS011;38101;53.126;6.878;2023-04-08T02:37:29;16.42;;;12.02;;
52102;SDS011;38101;53.126;6.878;2023-04-08T02:39:55;14.93;;;11.38;;
52102;SDS011;38101;53.126;6.878;2023-04-08T02:42:21;17.23;;;12.05;;
52102;SDS011;38101;53.126;6.878;2023-04-08T02:44:47;16.17;;;10.52;;
52102;SDS011;38101;53.126;6.878;2023-04-08T02:47:13;15.35;;;11.65;;
52102;SDS011;38101;53.126;6.878;2023-04-08T02:49:39;14.13;;;11.20;;
52102;SDS011;38101;53.126;6.878;2023-04-08T02:52:05;16.23;;;11.95;;
52102;SDS011;38101;53.126;6.878;2023-04-08T02:54:30;16.27;;;11.95;;
52102;SDS011;38101;53.126;6.878;2023-04-08T02:56:56;18.15;;;12.00;;
52102;SDS011;38101;53.126;6.878;2023-04-08T02:59:22;15.05;;;11.05;;
52102;SDS011;38101;53.126;6.878;2023-04-08T03:01:48;16.00;;;11.95;;
52102;SDS011;38101;53.126;6.878;2023-04-08T03:04:14;16.50;;;11.93;;
52102;SDS011;38101;53.126;6.878;2023-04-08T03:06:39;16.67;;;12.45;;
52102;SDS011;38101;53.126;6.878;2023-04-08T03:09:05;16.23;;;12.25;;
52102;SDS011;38101;53.126;6.878;2023-04-08T03:11:31;15.38;;;11.95;;
52102;SDS011;38101;53.126;6.878;2023-04-08T03:13:57;17.35;;;12.32;;
52102;SDS011;38101;53.126;6.878;2023-04-08T03:16:22;16.15;;;12.65;;
52102;SDS011;38101;53.126;6.878;2023-04-08T03:18:49;16.05;;;12.18;;
52102;SDS011;38101;53.126;6.878;2023-04-08T03:21:15;14.85;;;11.95;;
52102;SDS011;38101;53.126;6.878;2023-04-08T03:23:41;17.15;;;12.20;;
52102;SDS011;38101;53.126;6.878;2023-04-08T03:26:07;17.02;;;12.48;;
52102;SDS011;38101;53.126;6.878;2023-04-08T03:28:33;18.08;;;12.57;;
52102;SDS011;38101;53.126;6.878;2023-04-08T03:30:58;18.48;;;13.40;;
52102;SDS011;38101;53.126;6.878;2023-04-08T03:33:27;18.77;;;13.05;;
52102;SDS011;38101;53.126;6.878;2023-04-08T03:35:53;17.80;;;12.63;;
52102;SDS011;38101;53.126;6.878;2023-04-08T03:38:20;19.45;;;12.68;;
52102;SDS011;38101;53.126;6.878;2023-04-08T03:40:45;18.90;;;13.75;;
52102;SDS011;38101;53.126;6.878;2023-04-08T03:43:12;16.85;;;12.85;;
52102;SDS011;38101;53.126;6.878;2023-04-08T03:45:38;17.65;;;12.93;;
52102;SDS011;38101;53.126;6.878;2023-04-08T03:48:04;17.17;;;12.82;;
52102;SDS011;38101;53.126;6.878;2023-04-08T03:50:30;20.55;;;13.00;;
52102;SDS011;38101;53.126;6.878;2023-04-08T03:52:56;16.92;;;12.48;;
52102;SDS011;38101;53.126;6.878;2023-04-08T03:55:21;17.00;;;12.57;;
52102;SDS011;38101;53.126;6.878;2023-04-08T03:57:47;18.90;;;13.38;;
52102;SDS011;38101;53.126;6.878;2023-04-08T04:00:13;17.58;;;12.85;;
52102;SDS011;38101;53.126;6.878;2023-04-08T04:02:39;17.10;;;12.48;;
52102;SDS011;38101;53.126;6.878;2023-04-08T04:05:05;19.55;;;13.00;;
52102;SDS011;38101;53.126;6.878;2023-04-08T04:07:31;19.27;;;13.57;;
52102;SDS011;38101;53.126;6.878;2023-04-08T04:09:57;16.48;;;11.82;;
52102;SDS011;38101;53.126;6.878;2023-04-08T04:12:23;17.52;;;12.75;;
52102;SDS011;38101;53.126;6.878;2023-04-08T04:14:49;18.45;;;12.65;;
52102;SDS011;38101;53.126;6.878;2023-04-08T04:17:15;16.75;;;12.55;;
52102;SDS011;38101;53.126;6.878;2023-04-08T04:19:41;19.23;;;13.35;;
52102;SDS011;38101;53.126;6.878;2023-04-08T04:22:07;18.83;;;12.63;;
52102;SDS011;38101;53.126;6.878;2023-04-08T04:24:32;18.67;;;12.85;;
52102;SDS011;38101;53.126;6.878;2023-04-08T04:26:58;20.67;;;13.07;;
52102;SDS011;38101;53.126;6.878;2023-04-08T04:29:24;15.98;;;12.27;;
52102;SDS011;38101;53.126;6.878;2023-04-08T04:31:50;16.65;;;12.50;;
52102;SDS011;38101;53.126;6.878;2023-04-08T04:34:15;17.35;;;12.48;;
52102;SDS011;38101;53.126;6.878;2023-04-08T04:36:41;18.45;;;13.10;;
52102;SDS011;38101;53.126;6.878;2023-04-08T04:39:07;19.33;;;14.23;;
52102;SDS011;38101;53.126;6.878;2023-04-08T04:41:33;18.48;;;13.43;;
52102;SDS011;38101;53.126;6.878;2023-04-08T04:44:03;20.27;;;13.88;;
52102;SDS011;38101;53.126;6.878;2023-04-08T04:46:28;19.05;;;12.93;;
52102;SDS011;38101;53.126;6.878;2023-04-08T04:48:54;19.27;;;12.98;;
52102;SDS011;38101;53.126;6.878;2023-04-08T04:51:20;19.77;;;13.38;;
52102;SDS011;38101;53.126;6.878;2023-04-08T04:53:46;20.45;;;12.93;;
52102;SDS011;38101;53.126;6.878;2023-04-08T04:56:14;19.30;;;13.40;;
52102;SDS011;38101;53.126;6.878;2023-04-08T04:58:40;21.25;;;12.73;;
52102;SDS011;38101;53.126;6.878;2023-04-08T05:01:06;19.52;;;13.43;;
52102;SDS011;38101;53.126;6.878;2023-04-08T05:03:32;17.80;;;12.88;;
52102;SDS011;38101;53.126;6.878;2023-04-08T05:05:58;19.67;;;12.55;;
52102;SDS011;38101;53.126;6.878;2023-04-08T05:08:23;18.05;;;12.93;;
52102;SDS011;38101;53.126;6.878;2023-04-08T05:10:49;17.02;;;12.95;;
52102;SDS011;38101;53.126;6.878;2023-04-08T05:13:16;18.95;;;13.32;;
52102;SDS011;38101;53.126;6.878;2023-04-08T05:15:42;19.55;;;13.10;;
52102;SDS011;38101;53.126;6.878;2023-04-08T05:18:09;18.92;;;13.40;;
52102;SDS011;38101;53.126;6.878;2023-04-08T05:20:35;18.13;;;13.38;;
52102;SDS011;38101;53.126;6.878;2023-04-08T05:23:01;19.67;;;12.43;;
52102;SDS011;38101;53.126;6.878;2023-04-08T05:25:28;19.48;;;13.50;;
52102;SDS011;38101;53.126;6.878;2023-04-08T05:27:54;20.67;;;13.63;;
52102;SDS011;38101;53.126;6.878;2023-04-08T05:30:21;18.83;;;13.88;;
52102;SDS011;38101;53.126;6.878;2023-04-08T05:32:47;20.50;;;13.82;;
52102;SDS011;38101;53.126;6.878;2023-04-08T05:35:13;20.85;;;14.55;;
52102;SDS011;38101;53.126;6.878;2023-04-08T05:37:39;21.50;;;14.13;;
52102;SDS011;38101;53.126;6.878;2023-04-08T05:40:05;22.50;;;15.40;;
52102;SDS011;38101;53.126;6.878;2023-04-08T05:42:31;22.75;;;15.40;;
52102;SDS011;38101;53.126;6.878;2023-04-08T05:44:57;24.25;;;16.10;;
52102;SDS011;38101;53.126;6.878;2023-04-08T05:47:23;22.80;;;15.30;;
52102;SDS011;38101;53.126;6.878;2023-04-08T05:49:48;21.48;;;15.07;;
52102;SDS011;38101;53.126;6.878;2023-04-08T05:52:14;22.30;;;15.68;;
52102;SDS011;38101;53.126;6.878;2023-04-08T05:54:43;24.10;;;16.05;;
52102;SDS011;38101;53.126;6.878;2023-04-08T05:57:10;21.10;;;15.07;;
52102;SDS011;38101;53.126;6.878;2023-04-08T05:59:35;22.48;;;15.27;;
52102;SDS011;38101;53.126;6.878;2023-04-08T06:02:01;24.77;;;16.10;;
52102;SDS011;38101;53.126;6.878;2023-04-08T06:04:27;25.25;;;16.50;;
52102;SDS011;38101;53.126;6.878;2023-04-08T06:06:53;22.52;;;16.17;;
52102;SDS011;38101;53.126;6.878;2023-04-08T06:09:18;22.75;;;14.98;;
52102;SDS011;38101;53.126;6.878;2023-04-08T06:11:44;22.45;;;15.45;;
52102;SDS011;38101;53.126;6.878;2023-04-08T06:14:11;21.80;;;15.10;;
52102;SDS011;38101;53.126;6.878;2023-04-08T06:16:37;22.92;;;15.65;;
52102;SDS011;38101;53.126;6.878;2023-04-08T06:19:02;20.65;;;15.07;;
52102;SDS011;38101;53.126;6.878;2023-04-08T06:21:28;21.88;;;14.95;;
52102;SDS011;38101;53.126;6.878;2023-04-08T06:23:54;22.63;;;14.65;;
52102;SDS011;38101;53.126;6.878;2023-04-08T06:26:19;18.90;;;13.73;;
52102;SDS011;38101;53.126;6.878;2023-04-08T06:28:45;22.98;;;15.20;;
52102;SDS011;38101;53.126;6.878;2023-04-08T06:31:11;20.63;;;14.77;;
52102;SDS011;38101;53.126;6.878;2023-04-08T06:33:36;20.70;;;14.13;;
52102;SDS011;38101;53.126;6.878;2023-04-08T06:36:03;21.92;;;15.32;;
52102;SDS011;38101;53.126;6.878;2023-04-08T06:38:29;20.42;;;14.98;;
52102;SDS011;38101;53.126;6.878;2023-04-08T06:41:00;21.15;;;13.82;;
52102;SDS011;38101;53.126;6.878;2023-04-08T06:43:29;20.10;;;15.00;;
52102;SDS011;38101;53.126;6.878;2023-04-08T06:45:55;21.25;;;14.80;;
52102;SDS011;38101;53.126;6.878;2023-04-08T06:48:22;20.83;;;13.68;;
52102;SDS011;38101;53.126;6.878;2023-04-08T06:50:52;21.05;;;14.40;;
52102;SDS011;38101;53.126;6.878;2023-04-08T06:53:25;20.45;;;13.88;;
52102;SDS011;38101;53.126;6.878;2023-04-08T06:55:53;20.98;;;14.02;;
52102;SDS011;38101;53.126;6.878;2023-04-08T06:58:19;18.45;;;13.52;;
52102;SDS011;38101;53.126;6.878;2023-04-08T07:00:44;19.55;;;13.57;;
52102;SDS011;38101;53.126;6.878;2023-04-08T07:03:11;21.58;;;14.13;;
52102;SDS011;38101;53.126;6.878;2023-04-08T07:05:37;18.70;;;13.48;;
52102;SDS011;38101;53.126;6.878;2023-04-08T07:08:03;20.83;;;14.95;;
52102;SDS011;38101;53.126;6.878;2023-04-08T07:10:30;20.67;;;14.02;;
52102;SDS011;38101;53.126;6.878;2023-04-08T07:12:56;19.50;;;13.45;;
52102;SDS011;38101;53.126;6.878;2023-04-08T07:15:22;18.60;;;12.52;;
52102;SDS011;38101;53.126;6.878;2023-04-08T07:17:48;19.95;;;13.50;;
52102;SDS011;38101;53.126;6.878;2023-04-08T07:20:13;18.98;;;13.38;;
52102;SDS011;38101;53.126;6.878;2023-04-08T07:22:39;19.02;;;13.77;;
52102;SDS011;38101;53.126;6.878;2023-04-08T07:25:05;18.05;;;12.90;;
52102;SDS011;38101;53.126;6.878;2023-04-08T07:27:32;18.75;;;13.05;;
52102;SDS011;38101;53.126;6.878;2023-04-08T07:29:58;17.17;;;12.77;;
52102;SDS011;38101;53.126;6.878;2023-04-08T07:32:24;17.88;;;12.68;;
52102;SDS011;38101;53.126;6.878;2023-04-08T07:34:49;18.05;;;13.15;;
52102;SDS011;38101;53.126;6.878;2023-04-08T07:37:15;17.90;;;13.00;;
52102;SDS011;38101;53.126;6.878;2023-04-08T07:39:42;18.77;;;12.45;;
52102;SDS011;38101;53.126;6.878;2023-04-08T07:42:07;17.38;;;12.32;;
52102;SDS011;38101;53.126;6.878;2023-04-08T07:44:33;18.35;;;13.63;;
52102;SDS011;38101;53.126;6.878;2023-04-08T07:46:59;18.88;;;12.98;;
52102;SDS011;38101;53.126;6.878;2023-04-08T07:49:25;18.52;;;12.77;;
52102;SDS011;38101;53.126;6.878;2023-04-08T07:51:51;17.40;;;12.68;;
52102;SDS011;38101;53.126;6.878;2023-04-08T07:54:17;17.23;;;12.45;;
52102;SDS011;38101;53.126;6.878;2023-04-08T07:56:43;17.70;;;13.15;;
52102;SDS011;38101;53.126;6.878;2023-04-08T07:59:11;18.98;;;13.07;;
52102;SDS011;38101;53.126;6.878;2023-04-08T08:01:37;16.83;;;12.57;;
52102;SDS011;38101;53.126;6.878;2023-04-08T08:04:03;18.77;;;12.98;;
52102;SDS011;38101;53.126;6.878;2023-04-08T08:06:29;16.23;;;12.25;;
52102;SDS011;38101;53.126;6.878;2023-04-08T08:08:58;17.00;;;12.95;;
52102;SDS011;38101;53.126;6.878;2023-04-08T08:11:24;14.60;;;11.32;;
52102;SDS011;38101;53.126;6.878;2023-04-08T08:13:53;16.80;;;11.95;;
52102;SDS011;38101;53.126;6.878;2023-04-08T08:16:19;16.63;;;11.90;;
52102;SDS011;38101;53.126;6.878;2023-04-08T08:18:45;15.70;;;11.55;;
52102;SDS011;38101;53.126;6.878;2023-04-08T08:21:10;17.40;;;12.10;;
52102;SDS011;38101;53.126;6.878;2023-04-08T08:23:36;17.08;;;11.85;;
52102;SDS011;38101;53.126;6.878;2023-04-08T08:26:02;14.88;;;11.13;;
52102;SDS011;38101;53.126;6.878;2023-04-08T08:28:34;15.60;;;11.30;;
52102;SDS011;38101;53.126;6.878;2023-04-08T08:31:00;15.13;;;11.02;;
52102;SDS011;38101;53.126;6.878;2023-04-08T08:33:27;14.10;;;10.00;;
52102;SDS011;38101;53.126;6.878;2023-04-08T08:35:53;15.95;;;11.27;;
52102;SDS011;38101;53.126;6.878;2023-04-08T08:38:20;13.43;;;10.15;;
52102;SDS011;38101;53.126;6.878;2023-04-08T08:40:45;14.18;;;10.55;;
52102;SDS011;38101;53.126;6.878;2023-04-08T08:43:11;15.32;;;9.98;;
52102;SDS011;38101;53.126;6.878;2023-04-08T08:45:41;14.90;;;10.07;;
52102;SDS011;38101;53.126;6.878;2023-04-08T08:48:07;14.07;;;10.60;;
52102;SDS011;38101;53.126;6.878;2023-04-08T08:50:36;14.65;;;9.60;;
52102;SDS011;38101;53.126;6.878;2023-04-08T08:53:02;12.23;;;9.02;;
52102;SDS011;38101;53.126;6.878;2023-04-08T08:55:29;14.18;;;9.43;;
52102;SDS011;38101;53.126;6.878;2023-04-08T08:57:59;13.43;;;9.02;;
52102;SDS011;38101;53.126;6.878;2023-04-08T09:00:38;12.80;;;9.23;;
52102;SDS011;38101;53.126;6.878;2023-04-08T09:03:16;13.13;;;9.13;;
52102;SDS011;38101;53.126;6.878;2023-04-08T09:05:47;14.07;;;9.82;;
52102;SDS011;38101;53.126;6.878;2023-04-08T09:08:33;12.73;;;8.63;;
52102;SDS011;38101;53.126;6.878;2023-04-08T09:11:19;12.05;;;9.00;;
52102;SDS011;38101;53.126;6.878;2023-04-08T09:13:48;13.80;;;8.65;;
52102;SDS011;38101;53.126;6.878;2023-04-08T09:16:15;12.88;;;9.55;;
52102;SDS011;38101;53.126;6.878;2023-04-08T09:18:42;13.30;;;9.73;;
52102;SDS011;38101;53.126;6.878;2023-04-08T09:21:10;14.65;;;9.30;;
52102;SDS011;38101;53.126;6.878;2023-04-08T09:26:14;12.80;;;9.27;;
52102;SDS011;38101;53.126;6.878;2023-04-08T09:28:41;13.30;;;9.77;;
52102;SDS011;38101;53.126;6.878;2023-04-08T09:33:49;14.00;;;9.52;;
52102;SDS011;38101;53.126;6.878;2023-04-08T09:36:17;13.55;;;9.52;;
52102;SDS011;38101;53.126;6.878;2023-04-08T09:38:43;14.85;;;10.05;;
52102;SDS011;38101;53.126;6.878;2023-04-08T09:41:13;14.90;;;10.75;;
52102;SDS011;38101;53.126;6.878;2023-04-08T09:43:43;15.95;;;11.98;;
52102;SDS011;38101;53.126;6.878;2023-04-08T09:46:13;15.30;;;11.27;;
52102;SDS011;38101;53.126;6.878;2023-04-08T09:48:45;14.88;;;10.95;;
52102;SDS011;38101;53.126;6.878;2023-04-08T09:51:15;19.10;;;11.80;;
52102;SDS011;38101;53.126;6.878;2023-04-08T09:53:47;17.35;;;12.15;;
52102;SDS011;38101;53.126;6.878;2023-04-08T09:56:17;16.85;;;11.85;;
52102;SDS011;38101;53.126;6.878;2023-04-08T09:58:50;15.93;;;11.18;;
52102;SDS011;38101;53.126;6.878;2023-04-08T10:01:20;17.60;;;12.40;;
52102;SDS011;38101;53.126;6.878;2023-04-08T10:03:52;15.30;;;11.82;;
52102;SDS011;38101;53.126;6.878;2023-04-08T10:06:21;18.45;;;13.15;;
52102;SDS011;38101;53.126;6.878;2023-04-08T10:08:52;19.10;;;13.18;;
52102;SDS011;38101;53.126;6.878;2023-04-08T10:11:18;17.98;;;12.77;;
52102;SDS011;38101;53.126;6.878;2023-04-08T10:13:44;20.00;;;13.05;;
52102;SDS011;38101;53.126;6.878;2023-04-08T10:18:51;21.63;;;13.60;;
52102;SDS011;38101;53.126;6.878;2023-04-08T10:21:32;25.45;;;13.50;;
52102;SDS011;38101;53.126;6.878;2023-04-08T10:24:05;19.80;;;12.57;;
52102;SDS011;38101;53.126;6.878;2023-04-08T10:26:33;18.00;;;12.43;;
52102;SDS011;38101;53.126;6.878;2023-04-08T10:29:45;20.20;;;12.75;;
52102;SDS011;38101;53.126;6.878;2023-04-08T10:31:47;20.08;;;13.27;;
52102;SDS011;38101;53.126;6.878;2023-04-08T10:34:24;19.55;;;12.93;;
52102;SDS011;38101;53.126;6.878;2023-04-08T10:36:51;22.80;;;14.13;;
52102;SDS011;38101;53.126;6.878;2023-04-08T10:39:19;22.50;;;14.48;;
52102;SDS011;38101;53.126;6.878;2023-04-08T10:41:47;23.67;;;16.10;;
52102;SDS011;38101;53.126;6.878;2023-04-08T10:44:20;23.45;;;15.32;;
52102;SDS011;38101;53.126;6.878;2023-04-08T10:46:48;24.40;;;16.33;;
52102;SDS011;38101;53.126;6.878;2023-04-08T10:49:14;27.00;;;17.45;;
52102;SDS011;38101;53.126;6.878;2023-04-08T10:51:41;25.02;;;16.08;;
52102;SDS011;38101;53.126;6.878;2023-04-08T10:54:12;25.15;;;16.27;;
52102;SDS011;38101;53.126;6.878;2023-04-08T10:59:10;24.00;;;15.95;;
52102;SDS011;38101;53.126;6.878;2023-04-08T11:01:40;24.95;;;15.32;;
52102;SDS011;38101;53.126;6.878;2023-04-08T11:04:14;23.88;;;16.08;;
52102;SDS011;38101;53.126;6.878;2023-04-08T11:06:44;24.27;;;15.95;;
52102;SDS011;38101;53.126;6.878;2023-04-08T11:09:11;24.08;;;15.85;;
52102;SDS011;38101;53.126;6.878;2023-04-08T11:11:38;25.30;;;15.85;;
52102;SDS011;38101;53.126;6.878;2023-04-08T11:14:06;29.05;;;18.17;;
52102;SDS011;38101;53.126;6.878;2023-04-08T11:16:32;27.90;;;16.73;;
52102;SDS011;38101;53.126;6.878;2023-04-08T11:19:00;25.48;;;17.38;;
52102;SDS011;38101;53.126;6.878;2023-04-08T11:21:28;28.88;;;18.73;;
52102;SDS011;38101;53.126;6.878;2023-04-08T11:23:55;30.63;;;18.40;;
52102;SDS011;38101;53.126;6.878;2023-04-08T11:26:21;26.33;;;16.80;;
52102;SDS011;38101;53.126;6.878;2023-04-08T11:28:47;28.50;;;18.20;;
52102;SDS011;38101;53.126;6.878;2023-04-08T11:31:15;25.77;;;16.80;;
52102;SDS011;38101;53.126;6.878;2023-04-08T11:33:45;26.88;;;16.42;;
52102;SDS011;38101;53.126;6.878;2023-04-08T11:36:12;28.80;;;18.48;;
52102;SDS011;38101;53.126;6.878;2023-04-08T11:38:39;35.33;;;17.58;;
52102;SDS011;38101;53.126;6.878;2023-04-08T11:41:08;30.42;;;18.02;;
52102;SDS011;38101;53.126;6.878;2023-04-08T11:43:34;30.20;;;17.67;;
52102;SDS011;38101;53.126;6.878;2023-04-08T11:46:08;26.40;;;17.70;;
52102;SDS011;38101;53.126;6.878;2023-04-08T11:48:34;29.42;;;18.35;;
52102;SDS011;38101;53.126;6.878;2023-04-08T11:51:04;28.40;;;17.40;;
52102;SDS011;38101;53.126;6.878;2023-04-08T11:53:35;27.23;;;18.75;;
52102;SDS011;38101;53.126;6.878;2023-04-08T11:56:14;26.90;;;18.05;;
52102;SDS011;38101;53.126;6.878;2023-04-08T11:58:41;30.95;;;18.98;;
52102;SDS011;38101;53.126;6.878;2023-04-08T12:01:07;26.60;;;18.05;;
52102;SDS011;38101;53.126;6.878;2023-04-08T12:03:32;25.33;;;17.52;;
52102;SDS011;38101;53.126;6.878;2023-04-08T12:05:58;26.77;;;18.17;;
52102;SDS011;38101;53.126;6.878;2023-04-08T12:08:24;24.98;;;17.23;;
52102;SDS011;38101;53.126;6.878;2023-04-08T12:10:50;26.00;;;17.05;;
52102;SDS011;38101;53.126;6.878;2023-04-08T12:13:17;31.17;;;17.65;;
52102;SDS011;38101;53.126;6.878;2023-04-08T12:15:42;28.85;;;17.73;;
52102;SDS011;38101;53.126;6.878;2023-04-08T12:18:08;23.58;;;17.10;;
52102;SDS011;38101;53.126;6.878;2023-04-08T12:20:35;25.83;;;16.50;;
52102;SDS011;38101;53.126;6.878;2023-04-08T12:23:00;21.60;;;15.52;;
52102;SDS011;38101;53.126;6.878;2023-04-08T12:25:26;24.67;;;16.50;;
52102;SDS011;38101;53.126;6.878;2023-04-08T12:27:53;24.02;;;16.13;;
52102;SDS011;38101;53.126;6.878;2023-04-08T12:30:18;22.75;;;15.90;;
52102;SDS011;38101;53.126;6.878;2023-04-08T12:32:45;23.23;;;16.95;;
52102;SDS011;38101;53.126;6.878;2023-04-08T12:35:11;24.50;;;17.77;;
52102;SDS011;38101;53.126;6.878;2023-04-08T12:37:37;21.02;;;16.63;;
52102;SDS011;38101;53.126;6.878;2023-04-08T12:40:03;26.77;;;17.92;;
52102;SDS011;38101;53.126;6.878;2023-04-08T12:42:30;25.17;;;17.77;;
52102;SDS011;38101;53.126;6.878;2023-04-08T12:44:55;28.25;;;19.80;;
52102;SDS011;38101;53.126;6.878;2023-04-08T12:47:21;27.15;;;20.10;;
52102;SDS011;38101;53.126;6.878;2023-04-08T12:49:47;28.60;;;19.98;;
52102;SDS011;38101;53.126;6.878;2023-04-08T12:52:13;25.20;;;19.23;;
52102;SDS011;38101;53.126;6.878;2023-04-08T12:54:39;28.77;;;21.42;;
52102;SDS011;38101;53.126;6.878;2023-04-08T12:57:05;29.02;;;21.98;;
52102;SDS011;38101;53.126;6.878;2023-04-08T12:59:31;30.42;;;22.88;;
52102;SDS011;38101;53.126;6.878;2023-04-08T13:01:57;29.95;;;22.70;;
52102;SDS011;38101;53.126;6.878;2023-04-08T13:04:23;34.10;;;25.05;;
52102;SDS011;38101;53.126;6.878;2023-04-08T13:06:49;33.90;;;25.15;;
52102;SDS011;38101;53.126;6.878;2023-04-08T13:09:15;35.70;;;26.10;;
52102;SDS011;38101;53.126;6.878;2023-04-08T13:11:42;37.92;;;27.40;;
52102;SDS011;38101;53.126;6.878;2023-04-08T13:14:08;34.10;;;26.88;;
52102;SDS011;38101;53.126;6.878;2023-04-08T13:16:33;37.45;;;27.88;;
52102;SDS011;38101;53.126;6.878;2023-04-08T13:18:59;38.20;;;28.83;;
52102;SDS011;38101;53.126;6.878;2023-04-08T13:21:25;52.75;;;30.83;;
52102;SDS011;38101;53.126;6.878;2023-04-08T13:23:51;42.72;;;27.73;;
52102;SDS011;38101;53.126;6.878;2023-04-08T13:26:17;36.30;;;27.50;;
52102;SDS011;38101;53.126;6.878;2023-04-08T13:28:42;42.97;;;29.98;;
52102;SDS011;38101;53.126;6.878;2023-04-08T13:31:08;60.17;;;32.17;;
52102;SDS011;38101;53.126;6.878;2023-04-08T13:33:34;43.90;;;30.83;;
52102;SDS011;38101;53.126;6.878;2023-04-08T13:36:00;41.22;;;30.58;;
52102;SDS011;38101;53.126;6.878;2023-04-08T13:38:25;40.83;;;30.25;;
52102;SDS011;38101;53.126;6.878;2023-04-08T13:40:51;40.53;;;30.40;;
52102;SDS011;38101;53.126;6.878;2023-04-08T13:43:17;40.33;;;30.08;;
52102;SDS011;38101;53.126;6.878;2023-04-08T13:45:43;44.88;;;31.85;;
52102;SDS011;38101;53.126;6.878;2023-04-08T13:48:08;41.42;;;31.05;;
52102;SDS011;38101;53.126;6.878;2023-04-08T13:50:34;41.65;;;31.33;;
52102;SDS011;38101;53.126;6.878;2023-04-08T13:53:00;43.67;;;33.00;;
52102;SDS011;38101;53.126;6.878;2023-04-08T13:55:26;44.38;;;31.88;;
52102;SDS011;38101;53.126;6.878;2023-04-08T13:57:52;45.47;;;33.35;;
52102;SDS011;38101;53.126;6.878;2023-04-08T14:00:17;45.05;;;35.28;;
52102;SDS011;38101;53.126;6.878;2023-04-08T14:02:43;42.25;;;33.90;;
52102;SDS011;38101;53.126;6.878;2023-04-08T14:05:09;48.78;;;34.33;;
52102;SDS011;38101;53.126;6.878;2023-04-08T14:07:34;73.50;;;37.50;;
52102;SDS011;38101;53.126;6.878;2023-04-08T14:10:00;47.10;;;35.67;;
52102;SDS011;38101;53.126;6.878;2023-04-08T14:12:26;53.63;;;35.70;;
52102;SDS011;38101;53.126;6.878;2023-04-08T14:14:51;47.72;;;35.33;;
52102;SDS011;38101;53.126;6.878;2023-04-08T14:17:17;52.85;;;37.17;;
52102;SDS011;38101;53.126;6.878;2023-04-08T14:19:43;53.55;;;37.60;;
52102;SDS011;38101;53.126;6.878;2023-04-08T14:22:08;49.85;;;38.05;;
52102;SDS011;38101;53.126;6.878;2023-04-08T14:24:34;52.28;;;38.70;;
52102;SDS011;38101;53.126;6.878;2023-04-08T14:27:00;53.10;;;40.80;;
52102;SDS011;38101;53.126;6.878;2023-04-08T14:29:26;52.35;;;41.15;;
52102;SDS011;38101;53.126;6.878;2023-04-08T14:31:51;53.88;;;40.47;;
52102;SDS011;38101;53.126;6.878;2023-04-08T14:34:17;56.35;;;41.90;;
52102;SDS011;38101;53.126;6.878;2023-04-08T14:36:43;57.00;;;42.13;;
52102;SDS011;38101;53.126;6.878;2023-04-08T14:39:09;55.25;;;41.17;;
52102;SDS011;38101;53.126;6.878;2023-04-08T14:41:36;52.08;;;39.58;;